Terminal Aerodrome Forecast
Issued by NWS St Louis, MO

Home | Current Version | Previous Version | Text Only | Print | Product List | Glossary On
Versions: 1 2 3 4 5 6 7 8 9 10 11 12 13 14 15 16 17 18 19 20 21 22 23 24 25 26 27 28 29 30
000
FTUS43 KLSX 031500 AAB
TAFSTL
TAF AMD
KSTL 031520Z 0315/0418 18012KT 5SM HZ OVC007
     FM031800 22014G22KT P6SM OVC012
     FM040000 30010KT P6SM OVC015
     FM040500 34013G19KT P6SM OVC050=

USA.gov is the U.S. government's official web portal to all federal, state and local government web resources and services.